sensor_id;sensor_type;location;lat;lon;timestamp;P1;durP1;ratioP1;P2;durP2;ratioP2
63599;SDS011;49747;51.334;6.830;2023-02-01T00:00:15;13.70;;;4.80;;
63599;SDS011;49747;51.334;6.830;2023-02-01T00:02:42;11.25;;;3.70;;
63599;SDS011;49747;51.334;6.830;2023-02-01T00:05:09;16.95;;;4.40;;
63599;SDS011;49747;51.334;6.830;2023-02-01T00:07:36;12.50;;;4.20;;
63599;SDS011;49747;51.334;6.830;2023-02-01T00:10:03;13.82;;;3.80;;
63599;SDS011;49747;51.334;6.830;2023-02-01T00:12:31;11.23;;;3.58;;
63599;SDS011;49747;51.334;6.830;2023-02-01T00:14:58;13.73;;;4.15;;
63599;SDS011;49747;51.334;6.830;2023-02-01T00:17:24;12.93;;;4.20;;
63599;SDS011;49747;51.334;6.830;2023-02-01T00:19:51;9.77;;;3.63;;
63599;SDS011;49747;51.334;6.830;2023-02-01T00:22:17;11.68;;;4.22;;
63599;SDS011;49747;51.334;6.830;2023-02-01T00:24:44;10.65;;;3.80;;
63599;SDS011;49747;51.334;6.830;2023-02-01T00:27:10;10.85;;;3.58;;
63599;SDS011;49747;51.334;6.830;2023-02-01T00:29:36;12.13;;;4.43;;
63599;SDS011;49747;51.334;6.830;2023-02-01T00:32:03;8.32;;;3.38;;
63599;SDS011;49747;51.334;6.830;2023-02-01T00:34:29;12.60;;;4.25;;
63599;SDS011;49747;51.334;6.830;2023-02-01T00:36:56;10.20;;;3.70;;
63599;SDS011;49747;51.334;6.830;2023-02-01T00:39:22;11.15;;;4.57;;
63599;SDS011;49747;51.334;6.830;2023-02-01T00:41:49;12.93;;;3.90;;
63599;SDS011;49747;51.334;6.830;2023-02-01T00:44:15;12.77;;;4.18;;
63599;SDS011;49747;51.334;6.830;2023-02-01T00:46:42;12.15;;;4.47;;
63599;SDS011;49747;51.334;6.830;2023-02-01T00:49:08;15.00;;;5.22;;
63599;SDS011;49747;51.334;6.830;2023-02-01T00:51:35;10.77;;;4.28;;
63599;SDS011;49747;51.334;6.830;2023-02-01T00:54:01;12.65;;;4.55;;
63599;SDS011;49747;51.334;6.830;2023-02-01T00:56:29;14.85;;;4.85;;
63599;SDS011;49747;51.334;6.830;2023-02-01T00:58:56;14.10;;;5.03;;
63599;SDS011;49747;51.334;6.830;2023-02-01T01:01:24;15.20;;;5.25;;
63599;SDS011;49747;51.334;6.830;2023-02-01T01:03:55;14.45;;;5.13;;
63599;SDS011;49747;51.334;6.830;2023-02-01T01:06:24;11.40;;;4.80;;
63599;SDS011;49747;51.334;6.830;2023-02-01T01:08:55;10.43;;;5.35;;
63599;SDS011;49747;51.334;6.830;2023-02-01T01:11:25;13.20;;;5.40;;
63599;SDS011;49747;51.334;6.830;2023-02-01T01:13:54;12.00;;;4.88;;
63599;SDS011;49747;51.334;6.830;2023-02-01T01:16:22;17.02;;;6.13;;
63599;SDS011;49747;51.334;6.830;2023-02-01T01:21:17;14.27;;;5.38;;
63599;SDS011;49747;51.334;6.830;2023-02-01T01:23:44;11.82;;;4.95;;
63599;SDS011;49747;51.334;6.830;2023-02-01T01:26:16;10.38;;;4.82;;
63599;SDS011;49747;51.334;6.830;2023-02-01T01:28:47;13.90;;;5.60;;
63599;SDS011;49747;51.334;6.830;2023-02-01T01:31:14;14.20;;;4.78;;
63599;SDS011;49747;51.334;6.830;2023-02-01T01:33:43;15.60;;;5.35;;
63599;SDS011;49747;51.334;6.830;2023-02-01T01:36:10;13.48;;;4.68;;
63599;SDS011;49747;51.334;6.830;2023-02-01T01:38:40;12.70;;;4.45;;
63599;SDS011;49747;51.334;6.830;2023-02-01T01:41:08;11.45;;;4.47;;
63599;SDS011;49747;51.334;6.830;2023-02-01T01:43:47;12.57;;;4.13;;
63599;SDS011;49747;51.334;6.830;2023-02-01T01:46:20;10.65;;;4.63;;
63599;SDS011;49747;51.334;6.830;2023-02-01T01:48:50;11.70;;;4.22;;
63599;SDS011;49747;51.334;6.830;2023-02-01T01:51:22;9.73;;;4.10;;
63599;SDS011;49747;51.334;6.830;2023-02-01T01:54:10;17.73;;;4.57;;
63599;SDS011;49747;51.334;6.830;2023-02-01T01:56:43;8.88;;;4.18;;
63599;SDS011;49747;51.334;6.830;2023-02-01T01:59:14;11.50;;;4.20;;
63599;SDS011;49747;51.334;6.830;2023-02-01T02:01:41;11.57;;;3.38;;
63599;SDS011;49747;51.334;6.830;2023-02-01T02:04:08;13.25;;;3.88;;
63599;SDS011;49747;51.334;6.830;2023-02-01T02:06:40;14.30;;;3.80;;
63599;SDS011;49747;51.334;6.830;2023-02-01T02:09:14;13.45;;;3.80;;
63599;SDS011;49747;51.334;6.830;2023-02-01T02:11:41;16.75;;;3.67;;
63599;SDS011;49747;51.334;6.830;2023-02-01T02:14:09;10.30;;;3.22;;
63599;SDS011;49747;51.334;6.830;2023-02-01T02:16:52;12.77;;;3.17;;
63599;SDS011;49747;51.334;6.830;2023-02-01T02:19:32;13.18;;;3.33;;
63599;SDS011;49747;51.334;6.830;2023-02-01T02:25:19;11.82;;;3.10;;
63599;SDS011;49747;51.334;6.830;2023-02-01T02:28:00;8.85;;;3.38;;
63599;SDS011;49747;51.334;6.830;2023-02-01T02:33:37;9.15;;;2.75;;
63599;SDS011;49747;51.334;6.830;2023-02-01T02:36:30;15.80;;;3.38;;
63599;SDS011;49747;51.334;6.830;2023-02-01T02:45:12;10.40;;;2.70;;
63599;SDS011;49747;51.334;6.830;2023-02-01T02:50:43;12.82;;;2.97;;
63599;SDS011;49747;51.334;6.830;2023-02-01T02:56:46;9.27;;;3.00;;
63599;SDS011;49747;51.334;6.830;2023-02-01T02:59:33;11.77;;;2.70;;
63599;SDS011;49747;51.334;6.830;2023-02-01T03:02:20;12.60;;;3.72;;
63599;SDS011;49747;51.334;6.830;2023-02-01T03:05:06;11.32;;;2.88;;
63599;SDS011;49747;51.334;6.830;2023-02-01T03:07:49;12.65;;;2.67;;
63599;SDS011;49747;51.334;6.830;2023-02-01T03:13:22;12.35;;;2.83;;
63599;SDS011;49747;51.334;6.830;2023-02-01T03:18:32;11.55;;;2.83;;
63599;SDS011;49747;51.334;6.830;2023-02-01T03:21:17;10.70;;;3.17;;
63599;SDS011;49747;51.334;6.830;2023-02-01T03:23:49;10.02;;;3.45;;
63599;SDS011;49747;51.334;6.830;2023-02-01T03:26:19;10.38;;;2.90;;
63599;SDS011;49747;51.334;6.830;2023-02-01T03:28:51;11.23;;;3.00;;
63599;SDS011;49747;51.334;6.830;2023-02-01T03:31:22;18.20;;;3.03;;
63599;SDS011;49747;51.334;6.830;2023-02-01T03:33:49;14.55;;;2.95;;
63599;SDS011;49747;51.334;6.830;2023-02-01T03:39:32;10.35;;;2.78;;
63599;SDS011;49747;51.334;6.830;2023-02-01T03:42:05;12.68;;;3.45;;
63599;SDS011;49747;51.334;6.830;2023-02-01T03:44:51;11.90;;;3.72;;
63599;SDS011;49747;51.334;6.830;2023-02-01T03:47:25;14.50;;;2.90;;
63599;SDS011;49747;51.334;6.830;2023-02-01T03:49:57;15.02;;;3.85;;
63599;SDS011;49747;51.334;6.830;2023-02-01T03:52:38;10.50;;;3.05;;
63599;SDS011;49747;51.334;6.830;2023-02-01T03:55:08;8.00;;;2.65;;
63599;SDS011;49747;51.334;6.830;2023-02-01T03:57:45;13.32;;;3.10;;
63599;SDS011;49747;51.334;6.830;2023-02-01T04:00:21;14.15;;;3.13;;
63599;SDS011;49747;51.334;6.830;2023-02-01T04:02:51;8.85;;;2.70;;
63599;SDS011;49747;51.334;6.830;2023-02-01T04:05:18;12.73;;;3.90;;
63599;SDS011;49747;51.334;6.830;2023-02-01T04:07:54;15.38;;;3.40;;
63599;SDS011;49747;51.334;6.830;2023-02-01T04:10:21;12.30;;;3.28;;
63599;SDS011;49747;51.334;6.830;2023-02-01T04:12:47;12.85;;;4.32;;
63599;SDS011;49747;51.334;6.830;2023-02-01T04:15:14;12.35;;;3.30;;
63599;SDS011;49747;51.334;6.830;2023-02-01T04:17:40;10.32;;;2.92;;
63599;SDS011;49747;51.334;6.830;2023-02-01T04:20:07;13.07;;;2.90;;
63599;SDS011;49747;51.334;6.830;2023-02-01T04:22:35;10.93;;;3.03;;
63599;SDS011;49747;51.334;6.830;2023-02-01T04:25:01;11.73;;;3.63;;
63599;SDS011;49747;51.334;6.830;2023-02-01T04:27:28;10.90;;;2.83;;
63599;SDS011;49747;51.334;6.830;2023-02-01T04:29:54;15.60;;;3.72;;
63599;SDS011;49747;51.334;6.830;2023-02-01T04:32:23;17.90;;;3.53;;
63599;SDS011;49747;51.334;6.830;2023-02-01T04:34:50;12.73;;;3.00;;
63599;SDS011;49747;51.334;6.830;2023-02-01T04:37:16;13.43;;;2.80;;
63599;SDS011;49747;51.334;6.830;2023-02-01T04:39:42;10.45;;;2.60;;
63599;SDS011;49747;51.334;6.830;2023-02-01T04:42:09;17.05;;;3.78;;
63599;SDS011;49747;51.334;6.830;2023-02-01T04:44:35;13.55;;;3.30;;
63599;SDS011;49747;51.334;6.830;2023-02-01T04:47:05;14.35;;;3.45;;
63599;SDS011;49747;51.334;6.830;2023-02-01T04:49:31;12.43;;;3.42;;
63599;SDS011;49747;51.334;6.830;2023-02-01T04:51:58;15.05;;;2.60;;
63599;SDS011;49747;51.334;6.830;2023-02-01T04:54:24;20.48;;;3.72;;
63599;SDS011;49747;51.334;6.830;2023-02-01T04:56:51;15.68;;;3.05;;
63599;SDS011;49747;51.334;6.830;2023-02-01T04:59:17;14.02;;;3.15;;
63599;SDS011;49747;51.334;6.830;2023-02-01T05:01:44;11.57;;;2.83;;
63599;SDS011;49747;51.334;6.830;2023-02-01T05:04:13;10.15;;;2.97;;
63599;SDS011;49747;51.334;6.830;2023-02-01T05:06:40;13.57;;;3.10;;
63599;SDS011;49747;51.334;6.830;2023-02-01T05:09:06;12.02;;;3.00;;
63599;SDS011;49747;51.334;6.830;2023-02-01T05:11:33;7.82;;;2.70;;
63599;SDS011;49747;51.334;6.830;2023-02-01T05:14:22;13.70;;;3.15;;
63599;SDS011;49747;51.334;6.830;2023-02-01T05:16:49;9.10;;;3.00;;
63599;SDS011;49747;51.334;6.830;2023-02-01T05:19:15;12.70;;;2.67;;
63599;SDS011;49747;51.334;6.830;2023-02-01T05:21:41;14.00;;;3.55;;
63599;SDS011;49747;51.334;6.830;2023-02-01T05:24:08;10.80;;;2.90;;
63599;SDS011;49747;51.334;6.830;2023-02-01T05:26:46;11.25;;;2.70;;
63599;SDS011;49747;51.334;6.830;2023-02-01T05:29:14;13.82;;;2.65;;
63599;SDS011;49747;51.334;6.830;2023-02-01T05:31:41;12.05;;;2.85;;
63599;SDS011;49747;51.334;6.830;2023-02-01T05:34:11;15.18;;;2.92;;
63599;SDS011;49747;51.334;6.830;2023-02-01T05:36:37;12.02;;;2.70;;
63599;SDS011;49747;51.334;6.830;2023-02-01T05:39:04;17.17;;;2.92;;
63599;SDS011;49747;51.334;6.830;2023-02-01T05:41:30;13.57;;;3.03;;
63599;SDS011;49747;51.334;6.830;2023-02-01T05:43:56;11.00;;;3.22;;
63599;SDS011;49747;51.334;6.830;2023-02-01T05:46:23;15.07;;;2.97;;
63599;SDS011;49747;51.334;6.830;2023-02-01T05:48:49;16.10;;;3.85;;
63599;SDS011;49747;51.334;6.830;2023-02-01T05:51:16;15.43;;;3.50;;
63599;SDS011;49747;51.334;6.830;2023-02-01T05:53:42;17.23;;;3.75;;
63599;SDS011;49747;51.334;6.830;2023-02-01T05:56:09;17.85;;;3.22;;
63599;SDS011;49747;51.334;6.830;2023-02-01T05:58:35;17.60;;;3.53;;
63599;SDS011;49747;51.334;6.830;2023-02-01T06:01:02;17.77;;;4.25;;
63599;SDS011;49747;51.334;6.830;2023-02-01T06:03:29;17.92;;;3.17;;
63599;SDS011;49747;51.334;6.830;2023-02-01T06:05:56;24.55;;;4.63;;
63599;SDS011;49747;51.334;6.830;2023-02-01T06:08:22;16.75;;;3.55;;
63599;SDS011;49747;51.334;6.830;2023-02-01T06:10:57;12.80;;;3.55;;
63599;SDS011;49747;51.334;6.830;2023-02-01T06:13:24;11.25;;;3.20;;
63599;SDS011;49747;51.334;6.830;2023-02-01T06:15:50;15.00;;;3.63;;
63599;SDS011;49747;51.334;6.830;2023-02-01T06:18:17;11.43;;;3.10;;
63599;SDS011;49747;51.334;6.830;2023-02-01T06:20:44;15.00;;;3.75;;
63599;SDS011;49747;51.334;6.830;2023-02-01T06:23:10;10.57;;;3.15;;
63599;SDS011;49747;51.334;6.830;2023-02-01T06:25:36;15.88;;;3.58;;
63599;SDS011;49747;51.334;6.830;2023-02-01T06:28:03;10.05;;;2.78;;
63599;SDS011;49747;51.334;6.830;2023-02-01T06:30:31;18.42;;;3.30;;
63599;SDS011;49747;51.334;6.830;2023-02-01T06:32:58;16.02;;;3.55;;
63599;SDS011;49747;51.334;6.830;2023-02-01T06:35:24;15.98;;;3.30;;
63599;SDS011;49747;51.334;6.830;2023-02-01T06:37:52;15.98;;;3.05;;
63599;SDS011;49747;51.334;6.830;2023-02-01T06:40:18;14.55;;;3.47;;
63599;SDS011;49747;51.334;6.830;2023-02-01T06:42:45;11.98;;;3.33;;
63599;SDS011;49747;51.334;6.830;2023-02-01T06:45:11;20.55;;;4.03;;
63599;SDS011;49747;51.334;6.830;2023-02-01T06:47:38;10.00;;;3.15;;
63599;SDS011;49747;51.334;6.830;2023-02-01T06:50:04;16.42;;;3.10;;
63599;SDS011;49747;51.334;6.830;2023-02-01T06:52:31;14.90;;;3.13;;
63599;SDS011;49747;51.334;6.830;2023-02-01T06:54:57;11.38;;;3.38;;
63599;SDS011;49747;51.334;6.830;2023-02-01T06:57:24;13.70;;;2.78;;
63599;SDS011;49747;51.334;6.830;2023-02-01T06:59:51;19.92;;;3.08;;
63599;SDS011;49747;51.334;6.830;2023-02-01T07:02:17;13.82;;;3.25;;
63599;SDS011;49747;51.334;6.830;2023-02-01T07:04:44;15.27;;;3.70;;
63599;SDS011;49747;51.334;6.830;2023-02-01T07:07:10;17.85;;;3.60;;
63599;SDS011;49747;51.334;6.830;2023-02-01T07:09:38;14.38;;;3.47;;
63599;SDS011;49747;51.334;6.830;2023-02-01T07:12:04;17.20;;;3.22;;
63599;SDS011;49747;51.334;6.830;2023-02-01T07:14:31;17.60;;;4.53;;
63599;SDS011;49747;51.334;6.830;2023-02-01T07:16:57;15.48;;;4.05;;
63599;SDS011;49747;51.334;6.830;2023-02-01T07:19:24;16.17;;;3.28;;
63599;SDS011;49747;51.334;6.830;2023-02-01T07:21:50;14.02;;;2.72;;
63599;SDS011;49747;51.334;6.830;2023-02-01T07:24:16;15.40;;;3.38;;
63599;SDS011;49747;51.334;6.830;2023-02-01T07:26:43;15.35;;;3.63;;
63599;SDS011;49747;51.334;6.830;2023-02-01T07:29:09;15.27;;;3.00;;
63599;SDS011;49747;51.334;6.830;2023-02-01T07:31:36;16.38;;;3.35;;
63599;SDS011;49747;51.334;6.830;2023-02-01T07:34:02;13.43;;;3.58;;
63599;SDS011;49747;51.334;6.830;2023-02-01T07:36:29;16.85;;;3.33;;
63599;SDS011;49747;51.334;6.830;2023-02-01T07:38:56;15.95;;;3.95;;
63599;SDS011;49747;51.334;6.830;2023-02-01T07:41:23;12.60;;;2.97;;
63599;SDS011;49747;51.334;6.830;2023-02-01T07:43:52;20.67;;;3.75;;
63599;SDS011;49747;51.334;6.830;2023-02-01T07:46:18;18.08;;;4.22;;
63599;SDS011;49747;51.334;6.830;2023-02-01T07:48:45;17.85;;;3.70;;
63599;SDS011;49747;51.334;6.830;2023-02-01T07:51:13;13.30;;;3.40;;
63599;SDS011;49747;51.334;6.830;2023-02-01T07:53:41;16.48;;;3.15;;
63599;SDS011;49747;51.334;6.830;2023-02-01T07:56:12;13.70;;;3.13;;
63599;SDS011;49747;51.334;6.830;2023-02-01T07:58:40;12.55;;;3.15;;
63599;SDS011;49747;51.334;6.830;2023-02-01T08:01:14;13.55;;;3.65;;
63599;SDS011;49747;51.334;6.830;2023-02-01T08:03:51;14.25;;;3.63;;
63599;SDS011;49747;51.334;6.830;2023-02-01T08:08:52;14.63;;;3.00;;
63599;SDS011;49747;51.334;6.830;2023-02-01T08:11:20;16.83;;;3.08;;
63599;SDS011;49747;51.334;6.830;2023-02-01T08:13:48;15.85;;;3.45;;
63599;SDS011;49747;51.334;6.830;2023-02-01T08:16:15;11.73;;;2.85;;
63599;SDS011;49747;51.334;6.830;2023-02-01T08:18:43;16.42;;;3.40;;
63599;SDS011;49747;51.334;6.830;2023-02-01T08:21:20;14.05;;;3.25;;
63599;SDS011;49747;51.334;6.830;2023-02-01T08:23:49;13.95;;;3.75;;
63599;SDS011;49747;51.334;6.830;2023-02-01T08:26:22;16.73;;;3.17;;
63599;SDS011;49747;51.334;6.830;2023-02-01T08:28:52;17.30;;;3.78;;
63599;SDS011;49747;51.334;6.830;2023-02-01T08:31:21;21.48;;;3.75;;
63599;SDS011;49747;51.334;6.830;2023-02-01T08:33:51;12.15;;;2.83;;
63599;SDS011;49747;51.334;6.830;2023-02-01T08:36:19;15.77;;;3.30;;
63599;SDS011;49747;51.334;6.830;2023-02-01T08:38:46;12.90;;;3.22;;
63599;SDS011;49747;51.334;6.830;2023-02-01T08:41:14;12.48;;;2.83;;
63599;SDS011;49747;51.334;6.830;2023-02-01T08:43:43;17.00;;;3.70;;
63599;SDS011;49747;51.334;6.830;2023-02-01T08:46:11;13.63;;;3.00;;
63599;SDS011;49747;51.334;6.830;2023-02-01T08:48:38;13.85;;;3.22;;
63599;SDS011;49747;51.334;6.830;2023-02-01T08:51:06;15.43;;;3.45;;
63599;SDS011;49747;51.334;6.830;2023-02-01T08:53:35;14.95;;;3.53;;
63599;SDS011;49747;51.334;6.830;2023-02-01T08:56:02;13.15;;;3.25;;
63599;SDS011;49747;51.334;6.830;2023-02-01T08:58:29;19.27;;;3.67;;
63599;SDS011;49747;51.334;6.830;2023-02-01T09:00:56;18.42;;;4.38;;
63599;SDS011;49747;51.334;6.830;2023-02-01T09:03:22;10.25;;;2.90;;
63599;SDS011;49747;51.334;6.830;2023-02-01T09:05:48;12.25;;;3.05;;
63599;SDS011;49747;51.334;6.830;2023-02-01T09:08:15;11.90;;;3.03;;
63599;SDS011;49747;51.334;6.830;2023-02-01T09:10:42;13.25;;;2.90;;
63599;SDS011;49747;51.334;6.830;2023-02-01T09:13:09;13.13;;;3.45;;
63599;SDS011;49747;51.334;6.830;2023-02-01T09:15:36;11.50;;;3.50;;
63599;SDS011;49747;51.334;6.830;2023-02-01T09:18:03;16.48;;;4.05;;
63599;SDS011;49747;51.334;6.830;2023-02-01T09:20:29;18.10;;;3.55;;
63599;SDS011;49747;51.334;6.830;2023-02-01T09:22:56;10.07;;;2.97;;
63599;SDS011;49747;51.334;6.830;2023-02-01T09:25:22;12.77;;;2.80;;
63599;SDS011;49747;51.334;6.830;2023-02-01T09:27:49;16.25;;;3.33;;
63599;SDS011;49747;51.334;6.830;2023-02-01T09:30:15;16.77;;;3.03;;
63599;SDS011;49747;51.334;6.830;2023-02-01T09:32:42;10.95;;;3.35;;
63599;SDS011;49747;51.334;6.830;2023-02-01T09:35:08;11.35;;;3.10;;
63599;SDS011;49747;51.334;6.830;2023-02-01T09:37:35;10.13;;;3.00;;
63599;SDS011;49747;51.334;6.830;2023-02-01T09:40:03;18.70;;;4.10;;
63599;SDS011;49747;51.334;6.830;2023-02-01T09:45:32;14.13;;;2.92;;
63599;SDS011;49747;51.334;6.830;2023-02-01T09:48:11;14.00;;;4.25;;
63599;SDS011;49747;51.334;6.830;2023-02-01T09:50:44;12.68;;;3.10;;
63599;SDS011;49747;51.334;6.830;2023-02-01T09:55:57;11.05;;;2.83;;
63599;SDS011;49747;51.334;6.830;2023-02-01T09:58:33;15.65;;;2.95;;
63599;SDS011;49747;51.334;6.830;2023-02-01T10:01:04;13.25;;;3.05;;
63599;SDS011;49747;51.334;6.830;2023-02-01T10:03:36;13.35;;;3.58;;
63599;SDS011;49747;51.334;6.830;2023-02-01T10:09:03;14.63;;;3.33;;
63599;SDS011;49747;51.334;6.830;2023-02-01T10:16:51;18.75;;;3.80;;
63599;SDS011;49747;51.334;6.830;2023-02-01T10:22:23;17.85;;;3.97;;
63599;SDS011;49747;51.334;6.830;2023-02-01T10:27:57;12.38;;;2.97;;
63599;SDS011;49747;51.334;6.830;2023-02-01T10:30:31;12.32;;;3.20;;
63599;SDS011;49747;51.334;6.830;2023-02-01T10:33:12;14.90;;;3.33;;
63599;SDS011;49747;51.334;6.830;2023-02-01T10:38:11;11.07;;;3.00;;
63599;SDS011;49747;51.334;6.830;2023-02-01T10:40:53;13.73;;;3.45;;
63599;SDS011;49747;51.334;6.830;2023-02-01T10:43:23;8.30;;;2.50;;
63599;SDS011;49747;51.334;6.830;2023-02-01T10:45:49;10.55;;;2.75;;
63599;SDS011;49747;51.334;6.830;2023-02-01T10:48:16;14.45;;;3.45;;
63599;SDS011;49747;51.334;6.830;2023-02-01T10:50:47;9.55;;;2.70;;
63599;SDS011;49747;51.334;6.830;2023-02-01T10:53:21;14.90;;;2.92;;
63599;SDS011;49747;51.334;6.830;2023-02-01T10:55:52;11.20;;;3.20;;
63599;SDS011;49747;51.334;6.830;2023-02-01T10:58:20;15.07;;;3.03;;
63599;SDS011;49747;51.334;6.830;2023-02-01T11:00:56;12.43;;;3.75;;
63599;SDS011;49747;51.334;6.830;2023-02-01T11:03:30;16.65;;;2.92;;
63599;SDS011;49747;51.334;6.830;2023-02-01T11:08:26;12.73;;;2.85;;
63599;SDS011;49747;51.334;6.830;2023-02-01T11:11:00;16.67;;;3.40;;
63599;SDS011;49747;51.334;6.830;2023-02-01T11:13:32;14.63;;;3.75;;
63599;SDS011;49747;51.334;6.830;2023-02-01T11:16:04;8.20;;;3.08;;
63599;SDS011;49747;51.334;6.830;2023-02-01T11:18:34;13.18;;;3.28;;
63599;SDS011;49747;51.334;6.830;2023-02-01T11:21:03;11.48;;;2.65;;
63599;SDS011;49747;51.334;6.830;2023-02-01T11:23:31;16.00;;;2.95;;
63599;SDS011;49747;51.334;6.830;2023-02-01T11:26:12;12.45;;;2.97;;
63599;SDS011;49747;51.334;6.830;2023-02-01T11:28:40;11.98;;;3.42;;
63599;SDS011;49747;51.334;6.830;2023-02-01T11:31:16;13.32;;;2.92;;
63599;SDS011;49747;51.334;6.830;2023-02-01T11:33:46;14.65;;;3.35;;
63599;SDS011;49747;51.334;6.830;2023-02-01T11:36:18;10.50;;;3.00;;
63599;SDS011;49747;51.334;6.830;2023-02-01T11:41:56;10.85;;;3.17;;
63599;SDS011;49747;51.334;6.830;2023-02-01T11:44:34;8.18;;;2.67;;
63599;SDS011;49747;51.334;6.830;2023-02-01T11:47:21;9.25;;;2.90;;
63599;SDS011;49747;51.334;6.830;2023-02-01T11:50:08;13.10;;;3.35;;
63599;SDS011;49747;51.334;6.830;2023-02-01T11:55:33;11.63;;;3.95;;
63599;SDS011;49747;51.334;6.830;2023-02-01T11:58:29;17.17;;;3.72;;
63599;SDS011;49747;51.334;6.830;2023-02-01T12:09:18;13.25;;;3.40;;
63599;SDS011;49747;51.334;6.830;2023-02-01T12:12:00;15.65;;;3.45;;
63599;SDS011;49747;51.334;6.830;2023-02-01T12:17:19;12.52;;;4.13;;
63599;SDS011;49747;51.334;6.830;2023-02-01T12:22:55;18.42;;;4.15;;
63599;SDS011;49747;51.334;6.830;2023-02-01T12:33:52;18.77;;;3.38;;
63599;SDS011;49747;51.334;6.830;2023-02-01T12:38:55;13.93;;;3.42;;
63599;SDS011;49747;51.334;6.830;2023-02-01T12:41:44;12.30;;;3.30;;
63599;SDS011;49747;51.334;6.830;2023-02-01T12:44:18;15.35;;;3.58;;
63599;SDS011;49747;51.334;6.830;2023-02-01T12:46:54;15.73;;;3.40;;
63599;SDS011;49747;51.334;6.830;2023-02-01T12:52:20;13.73;;;3.85;;
63599;SDS011;49747;51.334;6.830;2023-02-01T12:54:59;13.18;;;3.17;;
63599;SDS011;49747;51.334;6.830;2023-02-01T12:57:36;12.68;;;3.03;;
63599;SDS011;49747;51.334;6.830;2023-02-01T13:00:13;14.48;;;2.90;;
63599;SDS011;49747;51.334;6.830;2023-02-01T13:03:01;13.02;;;2.75;;
63599;SDS011;49747;51.334;6.830;2023-02-01T13:08:21;11.95;;;2.63;;
63599;SDS011;49747;51.334;6.830;2023-02-01T13:10:54;13.75;;;2.35;;
63599;SDS011;49747;51.334;6.830;2023-02-01T13:16:01;12.25;;;2.80;;
63599;SDS011;49747;51.334;6.830;2023-02-01T13:18:39;12.75;;;3.22;;
63599;SDS011;49747;51.334;6.830;2023-02-01T13:21:10;13.07;;;3.15;;
63599;SDS011;49747;51.334;6.830;2023-02-01T13:23:42;17.40;;;3.35;;
63599;SDS011;49747;51.334;6.830;2023-02-01T13:26:12;12.95;;;2.80;;
63599;SDS011;49747;51.334;6.830;2023-02-01T13:28:43;12.00;;;2.92;;
63599;SDS011;49747;51.334;6.830;2023-02-01T13:42:29;12.23;;;2.83;;
63599;SDS011;49747;51.334;6.830;2023-02-01T13:47:32;7.40;;;2.17;;
63599;SDS011;49747;51.334;6.830;2023-02-01T13:53:17;7.53;;;2.20;;
63599;SDS011;49747;51.334;6.830;2023-02-01T13:55:54;10.10;;;2.00;;
63599;SDS011;49747;51.334;6.830;2023-02-01T14:11:42;17.92;;;2.70;;
63599;SDS011;49747;51.334;6.830;2023-02-01T14:16:41;11.20;;;2.80;;
63599;SDS011;49747;51.334;6.830;2023-02-01T14:19:21;10.73;;;2.05;;
63599;SDS011;49747;51.334;6.830;2023-02-01T14:21:56;12.18;;;2.08;;
63599;SDS011;49747;51.334;6.830;2023-02-01T14:24:27;13.27;;;2.28;;
63599;SDS011;49747;51.334;6.830;2023-02-01T14:27:14;10.93;;;2.72;;
63599;SDS011;49747;51.334;6.830;2023-02-01T14:29:53;14.65;;;2.75;;
63599;SDS011;49747;51.334;6.830;2023-02-01T14:34:58;10.55;;;2.08;;
63599;SDS011;49747;51.334;6.830;2023-02-01T14:37:28;11.43;;;2.58;;
63599;SDS011;49747;51.334;6.830;2023-02-01T14:40:00;11.55;;;2.10;;
63599;SDS011;49747;51.334;6.830;2023-02-01T14:47:49;14.60;;;2.60;;
63599;SDS011;49747;51.334;6.830;2023-02-01T14:50:48;8.98;;;2.08;;
63599;SDS011;49747;51.334;6.830;2023-02-01T14:53:27;13.35;;;3.25;;
63599;SDS011;49747;51.334;6.830;2023-02-01T14:58:51;11.48;;;2.47;;
63599;SDS011;49747;51.334;6.830;2023-02-01T15:01:45;9.57;;;2.03;;
63599;SDS011;49747;51.334;6.830;2023-02-01T15:04:17;18.80;;;3.10;;
63599;SDS011;49747;51.334;6.830;2023-02-01T15:06:48;17.52;;;2.47;;
63599;SDS011;49747;51.334;6.830;2023-02-01T15:09:31;14.30;;;2.55;;
63599;SDS011;49747;51.334;6.830;2023-02-01T15:14:40;17.98;;;2.38;;
63599;SDS011;49747;51.334;6.830;2023-02-01T15:17:24;11.85;;;2.47;;
63599;SDS011;49747;51.334;6.830;2023-02-01T15:20:15;10.52;;;2.25;;
63599;SDS011;49747;51.334;6.830;2023-02-01T15:22:55;9.73;;;2.30;;
63599;SDS011;49747;51.334;6.830;2023-02-01T15:25:25;10.57;;;2.20;;
63599;SDS011;49747;51.334;6.830;2023-02-01T15:27:54;16.35;;;2.90;;
63599;SDS011;49747;51.334;6.830;2023-02-01T15:33:06;12.15;;;2.65;;
63599;SDS011;49747;51.334;6.830;2023-02-01T15:35:49;14.55;;;2.90;;
63599;SDS011;49747;51.334;6.830;2023-02-01T15:40:56;9.27;;;2.38;;
63599;SDS011;49747;51.334;6.830;2023-02-01T15:43:25;11.00;;;2.22;;
63599;SDS011;49747;51.334;6.830;2023-02-01T15:46:00;16.98;;;2.80;;
63599;SDS011;49747;51.334;6.830;2023-02-01T15:48:32;14.38;;;2.55;;
63599;SDS011;49747;51.334;6.830;2023-02-01T15:51:04;9.32;;;2.28;;
63599;SDS011;49747;51.334;6.830;2023-02-01T15:53:31;14.50;;;2.35;;
63599;SDS011;49747;51.334;6.830;2023-02-01T15:56:01;18.38;;;3.03;;
63599;SDS011;49747;51.334;6.830;2023-02-01T15:58:30;19.25;;;4.20;;
63599;SDS011;49747;51.334;6.830;2023-02-01T16:01:02;16.17;;;2.60;;
63599;SDS011;49747;51.334;6.830;2023-02-01T16:06:07;13.25;;;2.70;;
63599;SDS011;49747;51.334;6.830;2023-02-01T16:08:36;17.02;;;3.72;;
63599;SDS011;49747;51.334;6.830;2023-02-01T16:11:25;14.77;;;2.90;;
63599;SDS011;49747;51.334;6.830;2023-02-01T16:13:59;14.98;;;2.78;;
63599;SDS011;49747;51.334;6.830;2023-02-01T16:16:27;14.05;;;2.90;;
63599;SDS011;49747;51.334;6.830;2023-02-01T16:18:55;17.65;;;3.25;;
63599;SDS011;49747;51.334;6.830;2023-02-01T16:21:21;19.70;;;3.15;;
63599;SDS011;49747;51.334;6.830;2023-02-01T16:23:51;13.23;;;2.80;;
63599;SDS011;49747;51.334;6.830;2023-02-01T16:26:18;10.60;;;2.47;;
63599;SDS011;49747;51.334;6.830;2023-02-01T16:28:45;18.52;;;3.30;;
63599;SDS011;49747;51.334;6.830;2023-02-01T16:31:17;10.50;;;2.40;;
63599;SDS011;49747;51.334;6.830;2023-02-01T16:33:50;13.75;;;2.40;;
63599;SDS011;49747;51.334;6.830;2023-02-01T16:36:17;16.98;;;2.78;;
63599;SDS011;49747;51.334;6.830;2023-02-01T16:38:45;10.27;;;2.33;;
63599;SDS011;49747;51.334;6.830;2023-02-01T16:41:17;14.15;;;2.72;;
63599;SDS011;49747;51.334;6.830;2023-02-01T16:43:44;18.10;;;2.58;;
63599;SDS011;49747;51.334;6.830;2023-02-01T16:46:13;11.18;;;2.63;;
63599;SDS011;49747;51.334;6.830;2023-02-01T16:48:43;9.95;;;2.13;;
63599;SDS011;49747;51.334;6.830;2023-02-01T16:51:13;17.27;;;2.92;;
63599;SDS011;49747;51.334;6.830;2023-02-01T16:53:42;9.77;;;2.20;;
63599;SDS011;49747;51.334;6.830;2023-02-01T16:56:20;15.60;;;2.80;;
63599;SDS011;49747;51.334;6.830;2023-02-01T16:59:00;14.30;;;3.17;;
63599;SDS011;49747;51.334;6.830;2023-02-01T17:01:27;10.68;;;2.75;;
63599;SDS011;49747;51.334;6.830;2023-02-01T17:03:54;14.77;;;2.85;;
63599;SDS011;49747;51.334;6.830;2023-02-01T17:06:22;16.02;;;3.28;;
63599;SDS011;49747;51.334;6.830;2023-02-01T17:08:54;14.07;;;2.97;;
63599;SDS011;49747;51.334;6.830;2023-02-01T17:11:24;15.98;;;3.10;;
63599;SDS011;49747;51.334;6.830;2023-02-01T17:13:51;8.80;;;2.38;;
63599;SDS011;49747;51.334;6.830;2023-02-01T17:18:45;13.35;;;3.60;;
63599;SDS011;49747;51.334;6.830;2023-02-01T17:21:16;10.95;;;2.40;;
63599;SDS011;49747;51.334;6.830;2023-02-01T17:23:42;21.25;;;3.05;;
63599;SDS011;49747;51.334;6.830;2023-02-01T17:26:09;14.15;;;2.70;;
63599;SDS011;49747;51.334;6.830;2023-02-01T17:28:36;12.15;;;3.30;;